sensor_id;sensor_type;location;lat;lon;timestamp;temperature;humidity
29007;DHT22;16104;48.642;9.008;2022-12-07T00:04:29;6.50;70.90
29007;DHT22;16104;48.642;9.008;2022-12-07T00:09:24;6.40;71.00
29007;DHT22;16104;48.642;9.008;2022-12-07T00:14:20;6.40;71.20
29007;DHT22;16104;48.642;9.008;2022-12-07T00:19:16;6.40;71.40
29007;DHT22;16104;48.642;9.008;2022-12-07T00:24:12;6.40;71.40
29007;DHT22;16104;48.642;9.008;2022-12-07T00:29:18;6.40;71.40
29007;DHT22;16104;48.642;9.008;2022-12-07T00:34:18;6.40;71.40
29007;DHT22;16104;48.642;9.008;2022-12-07T00:39:14;6.40;71.50
29007;DHT22;16104;48.642;9.008;2022-12-07T00:44:10;6.40;71.40
29007;DHT22;16104;48.642;9.008;2022-12-07T00:49:06;6.40;71.40
29007;DHT22;16104;48.642;9.008;2022-12-07T00:54:01;6.40;71.50
29007;DHT22;16104;48.642;9.008;2022-12-07T00:58:59;6.40;71.50
29007;DHT22;16104;48.642;9.008;2022-12-07T02:05:02;6.30;70.50
29007;DHT22;16104;48.642;9.008;2022-12-07T02:15:09;6.30;70.40
29007;DHT22;16104;48.642;9.008;2022-12-07T03:06:16;6.20;70.70
29007;DHT22;16104;48.642;9.008;2022-12-07T03:11:40;6.20;70.50
29007;DHT22;16104;48.642;9.008;2022-12-07T04:03:55;6.00;70.70
29007;DHT22;16104;48.642;9.008;2022-12-07T04:08:50;6.00;70.70
29007;DHT22;16104;48.642;9.008;2022-12-07T04:13:46;6.00;70.80
29007;DHT22;16104;48.642;9.008;2022-12-07T04:19:00;6.00;71.50
29007;DHT22;16104;48.642;9.008;2022-12-07T04:23:56;6.00;70.80
29007;DHT22;16104;48.642;9.008;2022-12-07T04:28:51;6.00;70.80
29007;DHT22;16104;48.642;9.008;2022-12-07T04:33:47;5.90;70.90
29007;DHT22;16104;48.642;9.008;2022-12-07T04:38:42;5.90;70.90
29007;DHT22;16104;48.642;9.008;2022-12-07T04:43:38;5.90;70.90
29007;DHT22;16104;48.642;9.008;2022-12-07T04:48:33;5.90;70.90
29007;DHT22;16104;48.642;9.008;2022-12-07T04:53:29;5.90;70.90
29007;DHT22;16104;48.642;9.008;2022-12-07T04:58:24;5.90;70.80
29007;DHT22;16104;48.642;9.008;2022-12-07T05:03:20;5.80;70.80
29007;DHT22;16104;48.642;9.008;2022-12-07T05:08:15;5.80;70.80
29007;DHT22;16104;48.642;9.008;2022-12-07T05:13:11;5.80;70.80
29007;DHT22;16104;48.642;9.008;2022-12-07T05:18:06;5.70;70.60
29007;DHT22;16104;48.642;9.008;2022-12-07T05:23:02;5.70;70.60
29007;DHT22;16104;48.642;9.008;2022-12-07T05:27:58;5.70;70.60
29007;DHT22;16104;48.642;9.008;2022-12-07T05:32:53;5.70;70.60
29007;DHT22;16104;48.642;9.008;2022-12-07T05:37:49;5.60;70.80
29007;DHT22;16104;48.642;9.008;2022-12-07T05:42:44;5.60;70.80
29007;DHT22;16104;48.642;9.008;2022-12-07T05:47:40;5.60;70.60
29007;DHT22;16104;48.642;9.008;2022-12-07T05:52:35;5.60;70.20
29007;DHT22;16104;48.642;9.008;2022-12-07T05:57:31;5.50;69.90
29007;DHT22;16104;48.642;9.008;2022-12-07T06:02:26;5.50;69.80
29007;DHT22;16104;48.642;9.008;2022-12-07T06:07:22;5.40;69.70
29007;DHT22;16104;48.642;9.008;2022-12-07T06:12:17;5.30;69.60
29007;DHT22;16104;48.642;9.008;2022-12-07T06:17:33;5.30;69.60
29007;DHT22;16104;48.642;9.008;2022-12-07T06:22:29;5.20;70.30
29007;DHT22;16104;48.642;9.008;2022-12-07T06:27:24;5.10;69.60
29007;DHT22;16104;48.642;9.008;2022-12-07T06:32:20;5.10;69.60
29007;DHT22;16104;48.642;9.008;2022-12-07T06:37:15;5.00;69.60
29007;DHT22;16104;48.642;9.008;2022-12-07T06:42:11;4.90;69.80
29007;DHT22;16104;48.642;9.008;2022-12-07T06:47:06;4.80;70.10
29007;DHT22;16104;48.642;9.008;2022-12-07T06:52:03;4.80;70.40
29007;DHT22;16104;48.642;9.008;2022-12-07T06:57:00;4.70;70.70
29007;DHT22;16104;48.642;9.008;2022-12-07T07:01:55;4.70;71.00
29007;DHT22;16104;48.642;9.008;2022-12-07T07:06:51;4.70;71.30
29007;DHT22;16104;48.642;9.008;2022-12-07T07:11:46;4.70;71.70
29007;DHT22;16104;48.642;9.008;2022-12-07T07:16:42;4.70;71.70
29007;DHT22;16104;48.642;9.008;2022-12-07T07:21:37;4.70;71.70
29007;DHT22;16104;48.642;9.008;2022-12-07T07:26:33;4.70;71.90
29007;DHT22;16104;48.642;9.008;2022-12-07T07:31:28;4.70;72.10
29007;DHT22;16104;48.642;9.008;2022-12-07T07:36:24;4.70;72.20
29007;DHT22;16104;48.642;9.008;2022-12-07T07:41:19;4.70;72.30
29007;DHT22;16104;48.642;9.008;2022-12-07T07:46:15;4.70;72.30
29007;DHT22;16104;48.642;9.008;2022-12-07T07:51:10;4.80;72.30
29007;DHT22;16104;48.642;9.008;2022-12-07T07:56:06;4.80;71.90
29007;DHT22;16104;48.642;9.008;2022-12-07T08:01:05;4.90;71.50
29007;DHT22;16104;48.642;9.008;2022-12-07T08:06:03;4.90;71.00
29007;DHT22;16104;48.642;9.008;2022-12-07T08:10:58;4.90;70.80
29007;DHT22;16104;48.642;9.008;2022-12-07T08:15:57;5.00;70.80
29007;DHT22;16104;48.642;9.008;2022-12-07T08:20:59;5.00;70.80
29007;DHT22;16104;48.642;9.008;2022-12-07T08:26:00;5.10;71.00
29007;DHT22;16104;48.642;9.008;2022-12-07T08:31:04;5.10;71.00
29007;DHT22;16104;48.642;9.008;2022-12-07T08:36:04;5.20;70.80
29007;DHT22;16104;48.642;9.008;2022-12-07T08:41:00;5.20;70.60
29007;DHT22;16104;48.642;9.008;2022-12-07T08:46:08;5.30;70.70
29007;DHT22;16104;48.642;9.008;2022-12-07T08:51:06;5.30;70.20
29007;DHT22;16104;48.642;9.008;2022-12-07T08:56:02;5.40;70.30
29007;DHT22;16104;48.642;9.008;2022-12-07T09:00:58;5.40;70.20
29007;DHT22;16104;48.642;9.008;2022-12-07T09:05:54;5.50;70.20
29007;DHT22;16104;48.642;9.008;2022-12-07T09:10:50;5.50;70.20
29007;DHT22;16104;48.642;9.008;2022-12-07T09:15:45;5.60;70.00
29007;DHT22;16104;48.642;9.008;2022-12-07T09:20:41;5.70;69.70
29007;DHT22;16104;48.642;9.008;2022-12-07T09:25:36;5.70;69.50
29007;DHT22;16104;48.642;9.008;2022-12-07T09:30:32;5.80;69.50
29007;DHT22;16104;48.642;9.008;2022-12-07T09:35:27;5.90;69.30
29007;DHT22;16104;48.642;9.008;2022-12-07T09:40:23;6.00;69.20
29007;DHT22;16104;48.642;9.008;2022-12-07T09:45:24;6.10;69.00
29007;DHT22;16104;48.642;9.008;2022-12-07T09:50:24;6.10;68.70
29007;DHT22;16104;48.642;9.008;2022-12-07T09:55:27;6.20;68.50
29007;DHT22;16104;48.642;9.008;2022-12-07T10:00:23;6.30;68.70
29007;DHT22;16104;48.642;9.008;2022-12-07T10:05:24;6.40;68.80
29007;DHT22;16104;48.642;9.008;2022-12-07T10:10:26;6.50;68.10
29007;DHT22;16104;48.642;9.008;2022-12-07T10:15:22;6.50;67.50
29007;DHT22;16104;48.642;9.008;2022-12-07T10:20:23;6.60;67.90
29007;DHT22;16104;48.642;9.008;2022-12-07T10:25:21;6.60;67.60
29007;DHT22;16104;48.642;9.008;2022-12-07T10:30:17;6.70;67.90
29007;DHT22;16104;48.642;9.008;2022-12-07T10:35:25;6.80;67.80
29007;DHT22;16104;48.642;9.008;2022-12-07T10:40:33;6.80;67.80
29007;DHT22;16104;48.642;9.008;2022-12-07T10:45:29;6.90;67.80
29007;DHT22;16104;48.642;9.008;2022-12-07T11:06:29;7.20;66.80
29007;DHT22;16104;48.642;9.008;2022-12-07T11:11:41;7.20;66.70
29007;DHT22;16104;48.642;9.008;2022-12-07T11:22:12;7.30;66.00
29007;DHT22;16104;48.642;9.008;2022-12-07T11:27:20;7.40;66.20
29007;DHT22;16104;48.642;9.008;2022-12-07T11:37:49;7.40;65.90
29007;DHT22;16104;48.642;9.008;2022-12-07T11:42:52;7.40;65.80
29007;DHT22;16104;48.642;9.008;2022-12-07T11:53:52;7.50;65.40
29007;DHT22;16104;48.642;9.008;2022-12-07T12:09:14;7.70;65.20
29007;DHT22;16104;48.642;9.008;2022-12-07T12:24:18;7.80;65.20
29007;DHT22;16104;48.642;9.008;2022-12-07T12:29:31;7.80;65.30
29007;DHT22;16104;48.642;9.008;2022-12-07T12:34:58;7.80;64.80
29007;DHT22;16104;48.642;9.008;2022-12-07T12:45:27;7.80;64.80
29007;DHT22;16104;48.642;9.008;2022-12-07T12:50:31;7.80;64.60
29007;DHT22;16104;48.642;9.008;2022-12-07T12:55:49;7.80;65.10
29007;DHT22;16104;48.642;9.008;2022-12-07T13:11:38;7.80;65.10
29007;DHT22;16104;48.642;9.008;2022-12-07T13:16:37;7.90;64.80
29007;DHT22;16104;48.642;9.008;2022-12-07T13:21:51;7.80;64.90
29007;DHT22;16104;48.642;9.008;2022-12-07T13:26:47;7.80;64.20
29007;DHT22;16104;48.642;9.008;2022-12-07T13:36:39;7.90;65.00
29007;DHT22;16104;48.642;9.008;2022-12-07T13:41:34;7.80;64.80
29007;DHT22;16104;48.642;9.008;2022-12-07T13:52:16;7.90;64.90
29007;DHT22;16104;48.642;9.008;2022-12-07T13:57:12;7.90;65.10
29007;DHT22;16104;48.642;9.008;2022-12-07T14:02:19;7.90;65.10
29007;DHT22;16104;48.642;9.008;2022-12-07T14:07:22;7.80;64.60
29007;DHT22;16104;48.642;9.008;2022-12-07T14:12:19;7.80;64.70
29007;DHT22;16104;48.642;9.008;2022-12-07T14:17:19;7.80;64.80
29007;DHT22;16104;48.642;9.008;2022-12-07T14:22:25;7.70;64.60
29007;DHT22;16104;48.642;9.008;2022-12-07T14:27:23;7.70;64.80
29007;DHT22;16104;48.642;9.008;2022-12-07T14:32:26;7.70;64.80
29007;DHT22;16104;48.642;9.008;2022-12-07T14:37:27;7.70;64.80
29007;DHT22;16104;48.642;9.008;2022-12-07T14:42:27;7.70;65.70
29007;DHT22;16104;48.642;9.008;2022-12-07T14:47:23;7.70;65.00
29007;DHT22;16104;48.642;9.008;2022-12-07T14:52:26;7.70;65.00
29007;DHT22;16104;48.642;9.008;2022-12-07T14:57:23;7.70;64.80
29007;DHT22;16104;48.642;9.008;2022-12-07T15:02:18;7.70;64.70
29007;DHT22;16104;48.642;9.008;2022-12-07T15:07:20;7.60;64.60
29007;DHT22;16104;48.642;9.008;2022-12-07T15:12:16;7.60;64.30
29007;DHT22;16104;48.642;9.008;2022-12-07T15:17:12;7.60;64.70
29007;DHT22;16104;48.642;9.008;2022-12-07T15:22:08;7.50;64.70
29007;DHT22;16104;48.642;9.008;2022-12-07T15:27:06;7.50;64.70
29007;DHT22;16104;48.642;9.008;2022-12-07T15:32:01;7.40;64.70
29007;DHT22;16104;48.642;9.008;2022-12-07T15:36:57;7.40;64.70
29007;DHT22;16104;48.642;9.008;2022-12-07T15:41:52;7.40;64.70
29007;DHT22;16104;48.642;9.008;2022-12-07T15:46:48;7.30;64.70
29007;DHT22;16104;48.642;9.008;2022-12-07T15:51:44;7.30;64.70
29007;DHT22;16104;48.642;9.008;2022-12-07T15:56:40;7.30;64.70
29007;DHT22;16104;48.642;9.008;2022-12-07T16:01:35;7.30;65.00
29007;DHT22;16104;48.642;9.008;2022-12-07T16:06:31;7.20;65.10
29007;DHT22;16104;48.642;9.008;2022-12-07T16:11:27;7.10;65.20
29007;DHT22;16104;48.642;9.008;2022-12-07T16:16:22;7.10;65.30
29007;DHT22;16104;48.642;9.008;2022-12-07T16:21:18;7.00;65.60
29007;DHT22;16104;48.642;9.008;2022-12-07T16:26:16;6.90;65.50
29007;DHT22;16104;48.642;9.008;2022-12-07T16:31:14;6.80;65.60
29007;DHT22;16104;48.642;9.008;2022-12-07T16:36:11;6.80;65.80
29007;DHT22;16104;48.642;9.008;2022-12-07T16:41:08;6.70;66.10
29007;DHT22;16104;48.642;9.008;2022-12-07T16:46:04;6.70;66.20
29007;DHT22;16104;48.642;9.008;2022-12-07T16:51:03;6.70;66.50
29007;DHT22;16104;48.642;9.008;2022-12-07T16:55:59;6.70;66.60
29007;DHT22;16104;48.642;9.008;2022-12-07T17:00:54;6.70;66.70
29007;DHT22;16104;48.642;9.008;2022-12-07T17:05:50;6.70;66.70
29007;DHT22;16104;48.642;9.008;2022-12-07T17:10:45;6.70;66.70
29007;DHT22;16104;48.642;9.008;2022-12-07T17:15:41;6.70;66.80
29007;DHT22;16104;48.642;9.008;2022-12-07T17:20:36;6.70;66.80
29007;DHT22;16104;48.642;9.008;2022-12-07T17:25:32;6.70;66.80
29007;DHT22;16104;48.642;9.008;2022-12-07T17:30:28;6.70;66.90
29007;DHT22;16104;48.642;9.008;2022-12-07T17:35:23;6.60;66.70
29007;DHT22;16104;48.642;9.008;2022-12-07T17:40:19;6.60;66.70
29007;DHT22;16104;48.642;9.008;2022-12-07T17:45:14;6.60;66.40
29007;DHT22;16104;48.642;9.008;2022-12-07T17:50:10;6.50;66.00
29007;DHT22;16104;48.642;9.008;2022-12-07T17:55:06;6.50;65.90
29007;DHT22;16104;48.642;9.008;2022-12-07T18:00:04;6.40;65.90
29007;DHT22;16104;48.642;9.008;2022-12-07T18:05:00;6.40;66.10
29007;DHT22;16104;48.642;9.008;2022-12-07T18:09:56;6.30;66.30
29007;DHT22;16104;48.642;9.008;2022-12-07T18:14:51;6.30;66.40
29007;DHT22;16104;48.642;9.008;2022-12-07T18:19:48;6.30;66.30
29007;DHT22;16104;48.642;9.008;2022-12-07T18:24:43;6.30;66.30
29007;DHT22;16104;48.642;9.008;2022-12-07T18:29:39;6.20;66.30
29007;DHT22;16104;48.642;9.008;2022-12-07T18:34:35;6.10;66.30
29007;DHT22;16104;48.642;9.008;2022-12-07T18:39:30;6.10;66.20
29007;DHT22;16104;48.642;9.008;2022-12-07T18:44:26;6.10;66.00
29007;DHT22;16104;48.642;9.008;2022-12-07T18:49:21;6.00;66.20
29007;DHT22;16104;48.642;9.008;2022-12-07T18:54:17;6.00;66.10
29007;DHT22;16104;48.642;9.008;2022-12-07T18:59:13;5.90;66.00
29007;DHT22;16104;48.642;9.008;2022-12-07T19:04:27;5.90;65.90
29007;DHT22;16104;48.642;9.008;2022-12-07T19:09:22;5.90;66.00
29007;DHT22;16104;48.642;9.008;2022-12-07T19:14:23;5.80;66.40
29007;DHT22;16104;48.642;9.008;2022-12-07T19:19:21;5.80;66.10
29007;DHT22;16104;48.642;9.008;2022-12-07T19:24:17;5.70;66.20
29007;DHT22;16104;48.642;9.008;2022-12-07T19:29:12;5.70;66.20
29007;DHT22;16104;48.642;9.008;2022-12-07T19:34:13;5.70;66.30
29007;DHT22;16104;48.642;9.008;2022-12-07T19:39:12;5.70;66.20
29007;DHT22;16104;48.642;9.008;2022-12-07T19:44:16;5.70;66.30
29007;DHT22;16104;48.642;9.008;2022-12-07T19:49:13;5.60;66.30
29007;DHT22;16104;48.642;9.008;2022-12-07T19:54:11;5.60;66.50
29007;DHT22;16104;48.642;9.008;2022-12-07T19:59:09;5.60;66.50
29007;DHT22;16104;48.642;9.008;2022-12-07T20:04:11;5.60;66.50
29007;DHT22;16104;48.642;9.008;2022-12-07T20:09:07;5.60;67.30
29007;DHT22;16104;48.642;9.008;2022-12-07T20:14:06;5.60;66.60
29007;DHT22;16104;48.642;9.008;2022-12-07T20:19:02;5.60;66.60
29007;DHT22;16104;48.642;9.008;2022-12-07T20:24:02;5.60;66.70
29007;DHT22;16104;48.642;9.008;2022-12-07T20:28:58;5.50;66.60
29007;DHT22;16104;48.642;9.008;2022-12-07T20:33:53;5.50;66.80
29007;DHT22;16104;48.642;9.008;2022-12-07T20:38:50;5.50;66.80
29007;DHT22;16104;48.642;9.008;2022-12-07T20:43:46;5.50;66.80
29007;DHT22;16104;48.642;9.008;2022-12-07T20:48:41;5.50;66.80
29007;DHT22;16104;48.642;9.008;2022-12-07T20:53:37;5.50;66.90
29007;DHT22;16104;48.642;9.008;2022-12-07T20:58:32;5.50;66.80
29007;DHT22;16104;48.642;9.008;2022-12-07T21:03:28;5.50;66.80
29007;DHT22;16104;48.642;9.008;2022-12-07T21:08:24;5.40;67.60
29007;DHT22;16104;48.642;9.008;2022-12-07T21:13:19;5.40;66.80
29007;DHT22;16104;48.642;9.008;2022-12-07T21:18:15;5.40;66.80
29007;DHT22;16104;48.642;9.008;2022-12-07T21:23:10;5.40;66.80
29007;DHT22;16104;48.642;9.008;2022-12-07T21:28:06;5.40;66.80
29007;DHT22;16104;48.642;9.008;2022-12-07T21:33:01;5.30;66.70
29007;DHT22;16104;48.642;9.008;2022-12-07T21:37:56;5.20;66.50
29007;DHT22;16104;48.642;9.008;2022-12-07T21:42:52;5.20;66.60
29007;DHT22;16104;48.642;9.008;2022-12-07T21:47:48;5.10;66.70
29007;DHT22;16104;48.642;9.008;2022-12-07T21:52:43;5.10;66.80
29007;DHT22;16104;48.642;9.008;2022-12-07T21:57:39;5.10;66.90
29007;DHT22;16104;48.642;9.008;2022-12-07T22:02:34;5.10;66.90
29007;DHT22;16104;48.642;9.008;2022-12-07T22:07:31;5.10;67.00
29007;DHT22;16104;48.642;9.008;2022-12-07T22:12:27;5.10;67.10
29007;DHT22;16104;48.642;9.008;2022-12-07T22:17:22;5.10;67.10
29007;DHT22;16104;48.642;9.008;2022-12-07T22:22:18;5.10;67.10
29007;DHT22;16104;48.642;9.008;2022-12-07T22:27:14;5.10;67.10
29007;DHT22;16104;48.642;9.008;2022-12-07T22:32:09;5.00;67.00
29007;DHT22;16104;48.642;9.008;2022-12-07T22:37:05;5.00;66.90
29007;DHT22;16104;48.642;9.008;2022-12-07T22:42:00;5.00;67.70
29007;DHT22;16104;48.642;9.008;2022-12-07T22:46:56;5.00;66.90
29007;DHT22;16104;48.642;9.008;2022-12-07T22:51:52;5.00;66.90
29007;DHT22;16104;48.642;9.008;2022-12-07T22:56:48;4.90;66.80
29007;DHT22;16104;48.642;9.008;2022-12-07T23:01:43;4.90;66.70
29007;DHT22;16104;48.642;9.008;2022-12-07T23:06:39;4.90;66.80
29007;DHT22;16104;48.642;9.008;2022-12-07T23:11:38;4.80;66.80
29007;DHT22;16104;48.642;9.008;2022-12-07T23:16:52;4.80;66.80
29007;DHT22;16104;48.642;9.008;2022-12-07T23:21:48;4.70;66.90
29007;DHT22;16104;48.642;9.008;2022-12-07T23:26:44;4.70;67.00
29007;DHT22;16104;48.642;9.008;2022-12-07T23:31:40;4.60;66.90
29007;DHT22;16104;48.642;9.008;2022-12-07T23:36:35;4.60;67.00
29007;DHT22;16104;48.642;9.008;2022-12-07T23:41:32;4.60;67.00
29007;DHT22;16104;48.642;9.008;2022-12-07T23:46:30;4.50;66.90
29007;DHT22;16104;48.642;9.008;2022-12-07T23:51:25;4.50;66.90
29007;DHT22;16104;48.642;9.008;2022-12-07T23:56:24;4.40;66.90
